createdAt,value
2023-05-04T00:00:46.168Z,1.40
2023-05-04T00:03:13.366Z,1.40
2023-05-04T00:05:40.645Z,1.80
2023-05-04T00:08:16.897Z,1.70
2023-05-04T00:10:44.077Z,1.60
2023-05-04T00:13:14.728Z,1.40
2023-05-04T00:15:42.118Z,1.80
2023-05-04T00:18:09.281Z,1.80
2023-05-04T00:20:43.050Z,1.70
2023-05-04T00:23:10.143Z,1.70
2023-05-04T00:25:37.180Z,1.60
2023-05-04T00:28:04.340Z,1.50
2023-05-04T00:30:31.693Z,2.00
2023-05-04T00:32:58.877Z,2.00
2023-05-04T00:35:30.446Z,2.00
2023-05-04T00:38:19.606Z,1.80
2023-05-04T00:40:46.648Z,1.80
2023-05-04T00:43:13.903Z,2.00
2023-05-04T00:45:42.076Z,2.20
2023-05-04T00:48:09.556Z,2.30
2023-05-04T00:50:36.673Z,2.10
2023-05-04T00:53:08.453Z,2.10
2023-05-04T00:55:40.201Z,2.30
2023-05-04T01:00:36.653Z,1.90
2023-05-04T01:03:05.322Z,2.40
2023-05-04T01:05:38.307Z,2.90
2023-05-04T01:08:11.601Z,2.50
2023-05-04T01:10:47.760Z,3.00
2023-05-04T01:13:17.735Z,2.60
2023-05-04T01:15:44.993Z,2.70
2023-05-04T01:18:12.384Z,2.40
2023-05-04T01:20:39.508Z,2.80
2023-05-04T01:23:07.164Z,2.70
2023-05-04T01:25:49.870Z,3.30
2023-05-04T01:28:19.921Z,2.70
2023-05-04T01:30:54.313Z,2.90
2023-05-04T01:33:29.386Z,3.00
2023-05-04T01:35:59.195Z,2.90
2023-05-04T01:38:26.389Z,2.60
2023-05-04T01:40:59.045Z,3.30
2023-05-04T01:43:26.991Z,3.20
2023-05-04T01:45:54.097Z,3.40
2023-05-04T01:48:21.302Z,3.10
2023-05-04T01:50:50.904Z,3.70
2023-05-04T01:53:21.444Z,3.80
2023-05-04T01:55:48.683Z,4.30
2023-05-04T01:58:33.314Z,4.20
2023-05-04T02:01:00.884Z,3.90
2023-05-04T02:03:28.472Z,4.20
2023-05-04T02:05:55.890Z,4.20
2023-05-04T02:08:23.455Z,4.00
2023-05-04T02:10:50.504Z,3.60
2023-05-04T02:13:18.605Z,3.80
2023-05-04T02:15:46.404Z,3.30
2023-05-04T02:18:13.655Z,3.60
2023-05-04T02:20:41.362Z,3.70
2023-05-04T02:23:09.332Z,3.30
2023-05-04T02:25:39.661Z,3.40
2023-05-04T02:28:07.224Z,3.00
2023-05-04T02:30:34.787Z,3.50
2023-05-04T02:33:02.728Z,3.70
2023-05-04T02:35:29.878Z,3.30
2023-05-04T02:37:57.232Z,3.30
2023-05-04T02:40:24.284Z,3.10
2023-05-04T02:42:51.533Z,3.00
2023-05-04T02:45:18.798Z,3.20
2023-05-04T02:47:45.865Z,3.30
2023-05-04T02:50:13.093Z,3.10
2023-05-04T02:52:40.138Z,2.90
2023-05-04T02:55:07.700Z,3.40
2023-05-04T02:57:34.951Z,3.30
2023-05-04T03:00:02.410Z,3.40
2023-05-04T03:02:29.684Z,3.50
2023-05-04T03:04:56.916Z,3.20
2023-05-04T03:07:24.068Z,3.10
2023-05-04T03:09:51.108Z,3.30
2023-05-04T03:12:18.278Z,3.70
2023-05-04T03:14:46.405Z,3.80
2023-05-04T03:17:13.482Z,3.50
2023-05-04T03:19:40.535Z,3.60
2023-05-04T03:22:08.920Z,3.60
2023-05-04T03:24:37.394Z,3.60
2023-05-04T03:27:04.954Z,3.50
2023-05-04T03:29:32.932Z,3.40
2023-05-04T03:32:00.248Z,3.10
2023-05-04T03:34:27.631Z,3.10
2023-05-04T03:36:58.478Z,3.70
2023-05-04T03:39:26.748Z,3.80
2023-05-04T03:41:54.929Z,4.10
2023-05-04T03:44:22.795Z,3.70
2023-05-04T03:46:49.742Z,3.40
2023-05-04T03:49:16.889Z,3.60
2023-05-04T03:51:43.942Z,4.20
2023-05-04T03:54:12.622Z,4.00
2023-05-04T03:56:39.775Z,4.00
2023-05-04T03:59:07.133Z,4.60
2023-05-04T04:01:34.380Z,4.30
2023-05-04T04:04:02.851Z,4.30
2023-05-04T04:06:31.145Z,5.00
2023-05-04T04:08:58.288Z,5.00
2023-05-04T04:11:26.368Z,4.40
2023-05-04T04:13:54.131Z,4.50
2023-05-04T04:16:21.584Z,5.40
2023-05-04T04:18:49.045Z,4.50
2023-05-04T04:21:15.963Z,5.00
2023-05-04T04:23:43.033Z,4.60
2023-05-04T04:26:10.692Z,4.00
2023-05-04T04:28:38.152Z,3.90
2023-05-04T04:31:05.125Z,4.80
2023-05-04T04:33:32.414Z,4.20
2023-05-04T04:36:00.889Z,4.80
2023-05-04T04:38:28.096Z,4.10
2023-05-04T04:40:55.150Z,4.10
2023-05-04T04:43:22.189Z,3.90
2023-05-04T04:45:49.535Z,4.00
2023-05-04T04:48:19.361Z,4.20
2023-05-04T04:50:46.911Z,4.70
2023-05-04T04:53:13.862Z,3.30
2023-05-04T04:55:42.089Z,3.50
2023-05-04T04:58:09.807Z,3.50
2023-05-04T05:00:37.150Z,4.00
2023-05-04T05:03:05.004Z,4.80
2023-05-04T05:05:32.376Z,3.80
2023-05-04T05:07:59.544Z,4.00
2023-05-04T05:10:26.980Z,3.40
2023-05-04T05:12:54.171Z,3.50
2023-05-04T05:15:21.180Z,3.60
2023-05-04T05:17:48.276Z,3.60
2023-05-04T05:20:15.818Z,3.20
2023-05-04T05:22:43.460Z,3.30
2023-05-04T05:25:11.421Z,2.90
2023-05-04T05:27:38.468Z,3.30
2023-05-04T05:30:06.863Z,3.90
2023-05-04T05:32:34.254Z,4.00
2023-05-04T05:35:01.469Z,3.00
2023-05-04T05:37:28.718Z,3.40
2023-05-04T05:39:55.880Z,3.50
2023-05-04T05:42:23.239Z,3.60
2023-05-04T05:44:51.249Z,3.40
2023-05-04T05:47:18.436Z,3.50
2023-05-04T05:49:46.472Z,3.20
2023-05-04T05:52:13.864Z,3.40
2023-05-04T05:54:41.640Z,3.30
2023-05-04T05:57:08.776Z,3.80
2023-05-04T05:59:35.728Z,3.80
2023-05-04T06:02:02.669Z,3.80
2023-05-04T06:04:29.979Z,3.00
2023-05-04T06:06:57.082Z,3.30
2023-05-04T06:09:24.325Z,3.30
2023-05-04T06:11:53.349Z,3.20
2023-05-04T06:14:21.913Z,3.40
2023-05-04T06:16:49.308Z,3.80
2023-05-04T06:19:16.513Z,3.50
2023-05-04T06:21:43.760Z,3.40
2023-05-04T06:24:11.087Z,3.50
2023-05-04T06:26:40.448Z,3.40
2023-05-04T06:29:07.685Z,3.40
2023-05-04T07:54:02.253Z,4.70
2023-05-04T07:56:29.428Z,5.10
2023-05-04T07:58:56.557Z,3.50
2023-05-04T08:01:24.814Z,3.90
2023-05-04T08:03:52.103Z,4.40
2023-05-04T08:06:19.147Z,4.30
2023-05-04T08:08:46.690Z,4.30
2023-05-04T08:11:20.551Z,4.30
2023-05-04T08:13:49.077Z,4.30
2023-05-04T08:16:16.528Z,4.10
2023-05-04T08:18:43.871Z,4.10
2023-05-04T08:21:10.907Z,4.20
2023-05-04T08:23:38.059Z,4.50
2023-05-04T08:26:05.627Z,4.20
2023-05-04T08:28:40.937Z,3.80
2023-05-04T08:31:08.224Z,4.00
2023-05-04T08:33:35.318Z,3.50
2023-05-04T08:36:04.235Z,3.90
2023-05-04T08:38:31.574Z,3.80
2023-05-04T08:40:58.886Z,3.80
2023-05-04T08:43:25.873Z,3.90
2023-05-04T08:45:52.951Z,3.80
2023-05-04T08:48:20.063Z,3.80
2023-05-04T08:50:53.154Z,3.90
2023-05-04T08:53:20.613Z,4.20
2023-05-04T08:55:50.625Z,4.10
2023-05-04T08:58:18.283Z,4.10
2023-05-04T09:00:45.465Z,3.50
2023-05-04T09:03:13.715Z,4.10
2023-05-04T09:05:44.157Z,3.30
2023-05-04T09:08:11.521Z,3.80
2023-05-04T09:10:38.645Z,4.00
2023-05-04T09:13:05.859Z,3.90
2023-05-04T09:15:33.458Z,3.60
2023-05-04T09:18:04.950Z,3.10
2023-05-04T09:23:07.652Z,3.40
2023-05-04T09:25:48.962Z,3.50
2023-05-04T09:28:16.664Z,3.80
2023-05-04T09:30:44.069Z,3.40
2023-05-04T09:33:11.443Z,3.80
2023-05-04T09:35:42.562Z,4.10
2023-05-04T09:38:09.736Z,3.50
2023-05-04T09:40:46.299Z,3.70
2023-05-04T09:43:13.763Z,3.80
2023-05-04T09:45:41.528Z,3.70
2023-05-04T09:48:37.245Z,4.00
2023-05-04T09:51:06.425Z,3.40
2023-05-04T09:53:33.504Z,3.50
2023-05-04T09:56:07.301Z,3.50
2023-05-04T09:58:35.416Z,3.70
2023-05-04T10:01:02.720Z,3.30
2023-05-04T10:03:30.500Z,3.80
2023-05-04T10:06:00.202Z,3.50
2023-05-04T10:08:28.581Z,3.90
2023-05-04T10:10:55.628Z,3.70
2023-05-04T10:13:23.825Z,3.80
2023-05-04T10:16:14.663Z,3.60
2023-05-04T10:19:00.818Z,3.40
2023-05-04T10:21:40.138Z,3.60
2023-05-04T10:24:13.664Z,3.70
2023-05-04T10:27:01.167Z,3.50
2023-05-04T10:29:29.781Z,3.60
2023-05-04T10:31:57.888Z,3.80
2023-05-04T10:34:35.303Z,3.40
2023-05-04T10:37:03.524Z,3.70
2023-05-04T10:39:31.997Z,3.10
2023-05-04T10:42:04.054Z,3.20
2023-05-04T10:44:32.727Z,3.40
2023-05-04T10:47:07.912Z,3.30
2023-05-04T10:49:44.226Z,3.00
2023-05-04T10:52:13.045Z,3.70
2023-05-04T10:54:41.592Z,4.10
2023-05-04T10:57:10.572Z,3.40
2023-05-04T10:59:42.975Z,3.10
2023-05-04T11:02:22.726Z,3.40
2023-05-04T11:05:00.544Z,3.20
2023-05-04T11:07:38.376Z,3.70
2023-05-04T11:10:07.113Z,3.50
2023-05-04T11:12:43.851Z,3.50
2023-05-04T11:15:14.099Z,3.70
2023-05-04T11:17:52.205Z,3.80
2023-05-04T11:20:26.702Z,4.20
2023-05-04T11:22:54.373Z,4.30
2023-05-04T11:25:28.568Z,4.40
2023-05-04T11:27:56.839Z,4.20
2023-05-04T11:30:34.207Z,4.50
2023-05-04T11:33:02.917Z,3.90
2023-05-04T11:35:30.338Z,4.20
2023-05-04T11:37:57.592Z,3.80
2023-05-04T11:40:27.205Z,4.00
2023-05-04T11:42:56.921Z,3.70
2023-05-04T11:45:25.577Z,4.00
2023-05-04T11:47:53.447Z,4.00
2023-05-04T11:50:21.028Z,4.30
2023-05-04T11:52:48.175Z,4.20
2023-05-04T11:55:28.537Z,4.00
2023-05-04T11:58:03.514Z,4.50
2023-05-04T12:00:43.978Z,4.10
2023-05-04T12:03:15.952Z,4.30
2023-05-04T12:05:47.576Z,3.90
2023-05-04T12:08:27.848Z,3.80
2023-05-04T12:11:25.803Z,3.90
2023-05-04T12:14:07.228Z,4.10
2023-05-04T12:16:34.561Z,3.60
2023-05-04T12:19:05.169Z,3.80
2023-05-04T12:21:32.926Z,4.20
2023-05-04T12:24:04.553Z,5.20
2023-05-04T12:26:31.913Z,3.40
2023-05-04T12:28:58.959Z,3.90
2023-05-04T12:31:27.374Z,3.60
2023-05-04T12:33:54.487Z,3.40
2023-05-04T12:36:21.466Z,3.20
2023-05-04T12:38:48.621Z,3.20
2023-05-04T12:41:15.541Z,3.30
2023-05-04T12:43:43.305Z,3.10
2023-05-04T12:46:10.750Z,3.10
2023-05-04T12:48:37.978Z,3.20
2023-05-04T12:51:05.357Z,3.00
2023-05-04T12:53:32.557Z,3.10
2023-05-04T12:56:00.188Z,3.10
2023-05-04T12:58:27.881Z,3.00
2023-05-04T13:00:55.862Z,2.70
2023-05-04T13:03:23.745Z,3.20
2023-05-04T13:05:51.486Z,2.60
2023-05-04T13:08:19.982Z,2.80
2023-05-04T13:10:47.508Z,3.10
2023-05-04T13:13:17.406Z,3.10
2023-05-04T13:15:45.365Z,3.20
2023-05-04T13:18:13.261Z,2.80
2023-05-04T13:20:41.041Z,3.40
2023-05-04T13:23:08.419Z,3.30
2023-05-04T13:25:35.363Z,2.90
2023-05-04T13:28:02.425Z,2.90
2023-05-04T13:30:29.976Z,2.90
2023-05-04T13:32:57.059Z,3.20
2023-05-04T13:35:24.280Z,2.70
2023-05-04T13:37:51.801Z,2.90
2023-05-04T13:40:18.909Z,2.50
2023-05-04T13:42:46.041Z,2.90
2023-05-04T13:45:13.411Z,2.70
2023-05-04T13:47:40.967Z,2.60
2023-05-04T13:50:08.866Z,2.90
2023-05-04T13:52:37.008Z,2.30
2023-05-04T13:55:05.023Z,2.50
2023-05-04T13:57:32.493Z,3.00
2023-05-04T14:00:06.345Z,3.00
2023-05-04T14:02:38.836Z,2.70
2023-05-04T14:05:07.744Z,3.00
2023-05-04T14:07:35.129Z,2.60
2023-05-04T14:10:02.802Z,2.50
2023-05-04T14:12:29.986Z,2.70
2023-05-04T14:14:57.665Z,2.30
2023-05-04T14:17:25.509Z,2.50
2023-05-04T14:19:52.718Z,2.60
2023-05-04T14:22:19.870Z,2.40
2023-05-04T14:24:47.109Z,9.20
2023-05-04T14:27:14.328Z,2.60
2023-05-04T14:29:41.434Z,2.60
2023-05-04T14:32:08.570Z,2.30
2023-05-04T14:34:36.713Z,2.20
2023-05-04T14:37:03.714Z,2.50
2023-05-04T14:39:31.086Z,2.20
2023-05-04T14:41:58.397Z,2.20
2023-05-04T14:44:28.164Z,2.20
2023-05-04T14:46:56.330Z,1.90
2023-05-04T14:49:36.468Z,2.30
2023-05-04T14:52:05.278Z,2.40
2023-05-04T14:54:32.831Z,2.30
2023-05-04T14:57:00.126Z,2.40
2023-05-04T14:59:27.956Z,2.40
2023-05-04T15:01:55.619Z,2.30
2023-05-04T15:04:23.141Z,2.40
2023-05-04T15:06:50.398Z,2.00
2023-05-04T15:09:17.463Z,2.30
2023-05-04T15:11:44.504Z,2.20
2023-05-04T15:14:11.881Z,2.00
2023-05-04T15:16:38.954Z,1.90
2023-05-04T15:19:06.661Z,1.60
2023-05-04T15:21:34.326Z,2.00
2023-05-04T15:24:01.476Z,1.60
2023-05-04T15:26:31.630Z,1.70
2023-05-04T15:29:01.823Z,1.70
2023-05-04T15:31:29.401Z,1.40
2023-05-04T15:33:56.834Z,1.50
2023-05-04T15:36:24.834Z,1.80
2023-05-04T15:38:54.923Z,1.70
2023-05-04T15:41:24.958Z,1.30
2023-05-04T15:43:52.195Z,1.50
2023-05-04T15:46:19.364Z,1.40
2023-05-04T15:48:49.570Z,2.20
2023-05-04T15:51:35.127Z,1.30
2023-05-04T15:54:03.592Z,1.10
2023-05-04T15:56:31.093Z,1.10
2023-05-04T15:58:58.455Z,1.40
2023-05-04T16:01:25.920Z,1.00
2023-05-04T16:03:59.773Z,1.30
2023-05-04T16:06:30.053Z,2.10
2023-05-04T16:08:57.775Z,1.20
2023-05-04T16:11:31.022Z,1.60
2023-05-04T16:13:58.245Z,1.00
2023-05-04T16:16:25.334Z,1.20
2023-05-04T16:18:53.267Z,1.60
2023-05-04T16:21:20.213Z,1.30
2023-05-04T16:23:47.244Z,1.30
2023-05-04T16:26:14.590Z,1.10
2023-05-04T16:28:41.646Z,1.40
2023-05-04T16:31:11.685Z,0.90
2023-05-04T16:33:39.277Z,1.40
2023-05-04T16:36:07.199Z,1.60
2023-05-04T16:38:34.273Z,1.30
2023-05-04T16:41:01.395Z,1.20
2023-05-04T16:43:28.546Z,1.20
2023-05-04T16:45:56.457Z,1.20
2023-05-04T16:48:27.452Z,1.20
2023-05-04T16:50:54.502Z,1.80
2023-05-04T16:53:21.597Z,1.20
2023-05-04T16:55:51.059Z,1.20
2023-05-04T16:58:18.206Z,1.10
2023-05-04T17:00:48.334Z,1.70
2023-05-04T17:03:15.875Z,1.10
2023-05-04T17:05:43.087Z,1.50
2023-05-04T17:08:17.760Z,1.30
2023-05-04T17:10:45.017Z,1.30
2023-05-04T17:13:12.399Z,1.50
2023-05-04T17:15:40.062Z,1.50
2023-05-04T17:18:07.407Z,1.40
2023-05-04T17:20:34.637Z,1.50
2023-05-04T17:23:02.074Z,1.70
2023-05-04T17:25:29.551Z,1.50
2023-05-04T17:27:59.867Z,2.10
2023-05-04T17:30:27.539Z,1.60
2023-05-04T17:32:57.580Z,1.30
2023-05-04T17:35:26.438Z,1.50
2023-05-04T17:37:58.768Z,1.60
2023-05-04T17:40:29.635Z,1.50
2023-05-04T17:42:57.171Z,1.50
2023-05-04T17:45:24.366Z,1.30
2023-05-04T17:47:54.653Z,1.50
2023-05-04T17:50:22.249Z,1.40
2023-05-04T17:52:55.921Z,1.80
2023-05-04T17:55:24.977Z,1.50
2023-05-04T17:57:53.888Z,1.60
2023-05-04T18:00:21.406Z,2.40
2023-05-04T18:02:48.804Z,1.70
2023-05-04T18:05:26.447Z,1.60
2023-05-04T18:07:53.809Z,1.80
2023-05-04T18:10:21.181Z,1.90
2023-05-04T18:12:48.451Z,1.60
2023-05-04T18:15:16.753Z,2.00
2023-05-04T18:17:43.930Z,1.50
2023-05-04T18:20:13.369Z,1.60
2023-05-04T18:22:42.551Z,2.00
2023-05-04T18:25:10.260Z,1.90
2023-05-04T18:27:37.498Z,2.00
2023-05-04T18:30:05.763Z,1.80
2023-05-04T18:32:36.737Z,1.60
2023-05-04T18:35:04.240Z,1.70
2023-05-04T18:37:31.787Z,1.90
2023-05-04T18:39:59.151Z,2.00
2023-05-04T18:42:26.763Z,1.90
2023-05-04T18:44:54.572Z,2.10
2023-05-04T18:47:22.686Z,1.50
2023-05-04T18:50:00.239Z,1.80
2023-05-04T18:52:27.292Z,1.50
2023-05-04T18:54:55.165Z,1.50
2023-05-04T18:57:22.411Z,1.50
2023-05-04T18:59:49.464Z,1.20
2023-05-04T19:02:16.523Z,1.10
2023-05-04T19:04:47.285Z,1.10
2023-05-04T19:07:16.099Z,1.40
2023-05-04T19:09:45.903Z,1.30
2023-05-04T19:12:14.353Z,1.10
2023-05-04T19:14:43.634Z,1.40
2023-05-04T19:17:10.860Z,1.00
2023-05-04T19:19:40.876Z,1.20
2023-05-04T19:22:07.826Z,1.00
2023-05-04T19:24:36.522Z,1.10
2023-05-04T19:27:04.172Z,1.00
2023-05-04T19:29:31.329Z,0.90
2023-05-04T19:32:01.311Z,0.90
2023-05-04T19:34:35.252Z,1.00
2023-05-04T19:37:02.404Z,1.10
2023-05-04T19:39:29.857Z,1.00
2023-05-04T19:41:59.772Z,0.70
2023-05-04T19:44:27.638Z,1.10
2023-05-04T19:46:54.855Z,0.80
2023-05-04T19:49:22.193Z,0.90
2023-05-04T19:51:49.392Z,1.00
2023-05-04T19:54:16.548Z,0.90
2023-05-04T19:56:43.912Z,0.90
2023-05-04T19:59:11.154Z,1.20
2023-05-04T20:02:20.536Z,1.10
2023-05-04T20:04:48.316Z,0.80
2023-05-04T20:07:15.407Z,1.00
2023-05-04T20:09:42.558Z,1.00
2023-05-04T20:12:09.528Z,0.80
2023-05-04T20:14:36.612Z,0.90
2023-05-04T20:17:03.801Z,1.10
2023-05-04T20:19:31.367Z,0.90
2023-05-04T20:21:58.460Z,1.20
2023-05-04T20:24:26.290Z,1.00
2023-05-04T20:26:53.520Z,0.90
2023-05-04T20:29:21.385Z,1.00
2023-05-04T20:31:48.460Z,0.90
2023-05-04T20:34:16.864Z,1.10
2023-05-04T20:36:46.421Z,1.00
2023-05-04T20:39:13.670Z,1.00
2023-05-04T20:41:41.333Z,1.00
2023-05-04T20:44:08.490Z,1.10
2023-05-04T20:46:35.815Z,0.90
2023-05-04T20:49:03.520Z,1.10
2023-05-04T20:51:31.277Z,0.80
2023-05-04T20:53:58.691Z,0.90
2023-05-04T20:56:25.985Z,1.10
2023-05-04T20:58:53.231Z,1.00
2023-05-04T21:01:20.458Z,1.00
2023-05-04T21:03:47.715Z,0.90
2023-05-04T21:06:15.201Z,1.20
2023-05-04T21:08:42.139Z,1.10
2023-05-04T21:11:09.322Z,1.00
2023-05-04T21:13:36.237Z,1.00
2023-05-04T21:16:03.325Z,0.90
2023-05-04T21:18:30.342Z,1.00
2023-05-04T21:20:57.380Z,1.00
2023-05-04T21:23:25.349Z,1.20
2023-05-04T21:26:00.645Z,1.00
2023-05-04T21:28:27.843Z,1.20
2023-05-04T21:30:54.781Z,1.10
2023-05-04T21:33:21.831Z,1.00
2023-05-04T21:35:48.874Z,1.00
2023-05-04T21:38:17.390Z,1.00
2023-05-04T21:40:45.535Z,1.00
2023-05-04T21:43:12.582Z,1.50
2023-05-04T21:45:39.587Z,1.50
2023-05-04T21:48:06.999Z,1.20
2023-05-04T21:50:34.034Z,1.30
2023-05-04T21:53:01.184Z,1.40
2023-05-04T21:55:29.384Z,1.30
2023-05-04T21:57:56.386Z,0.90
2023-05-04T22:00:24.133Z,1.30
2023-05-04T22:02:54.045Z,1.50
2023-05-04T22:05:22.726Z,1.30
2023-05-04T22:07:50.376Z,1.60
2023-05-04T22:10:18.183Z,1.40
2023-05-04T22:12:45.246Z,1.40
2023-05-04T22:15:12.478Z,0.90
2023-05-04T22:17:39.685Z,1.40
2023-05-04T22:20:08.113Z,1.20
2023-05-04T22:22:35.947Z,1.30
2023-05-04T22:25:03.452Z,1.20
2023-05-04T22:27:30.569Z,1.40
2023-05-04T22:29:57.714Z,1.50
2023-05-04T22:32:24.826Z,1.30
2023-05-04T22:34:51.811Z,1.40
2023-05-04T22:37:18.965Z,1.70
2023-05-04T22:39:46.430Z,1.20
2023-05-04T22:42:13.776Z,1.50
2023-05-04T22:44:41.133Z,1.50
2023-05-04T22:47:08.609Z,1.40
2023-05-04T22:49:35.890Z,1.10
2023-05-04T22:52:03.100Z,1.30
2023-05-04T22:54:30.245Z,1.10
2023-05-04T22:56:57.411Z,1.20
2023-05-04T22:59:24.360Z,1.30
2023-05-04T23:01:51.490Z,1.30
2023-05-04T23:04:18.648Z,1.20
2023-05-04T23:06:45.799Z,1.40
2023-05-04T23:09:14.386Z,1.20
2023-05-04T23:11:41.957Z,1.50
2023-05-04T23:14:09.097Z,1.30
2023-05-04T23:16:36.208Z,1.20
2023-05-04T23:19:03.942Z,1.10
2023-05-04T23:21:31.781Z,1.50
2023-05-04T23:23:58.929Z,1.20
2023-05-04T23:26:25.991Z,1.50
2023-05-04T23:28:53.027Z,1.10
2023-05-04T23:31:20.214Z,1.30
2023-05-04T23:33:47.325Z,1.50
2023-05-04T23:36:14.542Z,1.40
2023-05-04T23:38:41.833Z,1.40
2023-05-04T23:41:08.879Z,1.30
2023-05-04T23:43:36.237Z,1.40
2023-05-04T23:46:04.258Z,1.40
2023-05-04T23:48:32.210Z,1.70
2023-05-04T23:51:04.136Z,1.70
2023-05-04T23:56:05.603Z,1.40
2023-05-04T23:58:33.552Z,1.40
